Time;durP1;ratioP1;P1;durP2;ratioP2;P2;SDS_P1;SDS_P2;PMS_P1;PMS_P2;Temp;Humidity;BMP_temperature;BMP_pressure;BME280_temperature;BME280_humidity;BME280_pressure;Samples;Min_cycle;Max_cycle;Signal;HPM_P1;HPM_P2
2022/06/13 00:01:36;;;;;;;5.70;3.20;;;20.80;99.90;;;;;;4993811;28;20182;-71
2022/06/13 00:04:04;;;;;;;3.47;3.17;;;20.70;99.90;;;;;;5006176;28;20219;-72
2022/06/13 00:06:29;;;;;;;4.60;3.40;;;20.70;99.90;;;;;;5006046;28;20835;-71
2022/06/13 00:08:55;;;;;;;3.70;3.30;;;20.80;99.90;;;;;;5005916;28;20416;-74
2022/06/13 00:11:24;;;;;;;4.10;3.53;;;20.90;99.90;;;;;;5005860;28;20505;-71
2022/06/13 00:13:52;;;;;;;5.47;3.80;;;20.90;99.90;;;;;;5006151;28;20558;-72
2022/06/13 00:16:19;;;;;;;5.90;3.40;;;20.80;99.90;;;;;;5006277;28;20457;-72
2022/06/13 00:18:47;;;;;;;6.50;3.40;;;20.80;99.90;;;;;;5006407;28;20419;-72
2022/06/13 00:21:24;;;;;;;4.33;3.60;;;20.70;99.90;;;;;;4991932;28;20436;-72
2022/06/13 00:23:50;;;;;;;4.40;4.00;;;20.60;99.90;;;;;;4986354;28;20435;-72
2022/06/13 00:26:18;;;;;;;7.30;3.60;;;20.50;99.90;;;;;;4986346;28;20844;-72
2022/06/13 00:28:43;;;;;;;4.63;3.97;;;20.40;99.90;;;;;;4978808;28;21092;-71
2022/06/13 00:31:09;;;;;;;3.40;3.17;;;20.40;99.90;;;;;;4992652;28;20436;-71
2022/06/13 00:33:35;;;;;;;5.20;3.83;;;20.50;99.90;;;;;;4986446;28;20244;-71
2022/06/13 00:36:00;;;;;;;6.07;4.10;;;20.40;99.90;;;;;;4986454;28;20360;-71
2022/06/13 00:38:26;;;;;;;5.73;3.90;;;20.20;99.90;;;;;;4985864;28;20247;-70
2022/06/13 00:40:52;;;;;;;4.67;4.17;;;20.00;99.90;;;;;;4986388;28;20196;-73
2022/06/13 00:43:17;;;;;;;4.00;3.27;;;19.70;99.90;;;;;;4986744;28;20216;-71
2022/06/13 00:45:43;;;;;;;4.47;4.03;;;19.80;99.90;;;;;;4986230;28;20189;-73
2022/06/13 00:48:12;;;;;;;4.80;4.40;;;19.90;99.90;;;;;;4988422;28;20195;-72
2022/06/13 00:50:45;;;;;;;5.27;3.73;;;20.00;99.90;;;;;;4985118;28;20184;-71
2022/06/13 00:53:28;;;;;;;3.73;3.20;;;20.00;99.90;;;;;;4985674;28;20482;-72
2022/06/13 00:56:08;;;;;;;4.93;4.07;;;20.00;99.90;;;;;;5002367;28;20438;-73
2022/06/13 00:58:45;;;;;;;3.53;3.23;;;20.00;99.90;;;;;;4985694;28;20579;-73
2022/06/13 01:01:10;;;;;;;5.40;4.20;;;19.90;99.90;;;;;;5004685;28;20410;-72
2022/06/13 01:03:36;;;;;;;4.57;3.40;;;20.00;99.90;;;;;;5004743;28;20975;-71
2022/06/13 01:06:05;;;;;;;4.73;2.97;;;20.00;99.90;;;;;;5005521;28;20191;-72
2022/06/13 01:08:33;;;;;;;3.70;3.40;;;20.00;99.90;;;;;;4996592;28;20193;-71
2022/06/13 01:11:17;;;;;;;3.47;3.27;;;20.10;99.90;;;;;;4996569;28;20509;-73
2022/06/13 01:13:42;;;;;;;3.97;3.57;;;20.20;99.90;;;;;;5005045;28;20838;-71
2022/06/13 01:16:22;;;;;;;4.50;3.70;;;20.40;99.90;;;;;;5001885;28;20412;-71
2022/06/13 01:19:26;;;;;;;4.23;3.80;;;20.40;99.90;;;;;;4984996;28;20186;-72
2022/06/13 01:22:25;;;;;;;4.27;3.30;;;20.50;99.90;;;;;;4984992;28;20623;-72
2022/06/13 01:24:54;;;;;;;3.47;3.13;;;20.50;99.90;;;;;;4985242;28;20586;-70
2022/06/13 01:27:55;;;;;;;4.83;3.20;;;20.40;99.90;;;;;;4985088;28;21426;-71
2022/06/13 01:30:49;;;;;;;4.43;3.00;;;20.30;99.90;;;;;;4984977;28;20501;-72
2022/06/13 01:33:46;;;;;;;3.80;3.33;;;20.30;99.90;;;;;;4985387;28;20960;-74
2022/06/13 01:36:34;;;;;;;4.50;4.10;;;20.30;99.90;;;;;;4985200;28;20407;-71
2022/06/13 01:39:29;;;;;;;3.30;3.00;;;20.40;99.90;;;;;;4971312;28;20526;-73
2022/06/13 01:42:09;;;;;;;3.60;3.30;;;20.40;99.90;;;;;;4984946;28;20452;-72
2022/06/13 01:44:57;;;;;;;5.10;4.20;;;20.40;99.90;;;;;;4985003;28;20458;-72
2022/06/13 01:47:50;;;;;;;4.27;3.87;;;20.40;99.90;;;;;;5001806;28;20406;-72
2022/06/13 01:50:31;;;;;;;3.80;3.37;;;20.40;99.90;;;;;;4991748;28;20575;-74
2022/06/13 01:53:13;;;;;;;4.40;3.50;;;20.40;99.90;;;;;;4984564;28;20451;-73
2022/06/13 01:55:48;;;;;;;4.63;4.03;;;20.30;99.90;;;;;;4990149;28;20417;-72
2022/06/13 01:58:16;;;;;;;8.27;3.47;;;20.20;99.90;;;;;;4996211;28;20470;-71
2022/06/13 02:00:50;;;;;;;4.07;3.67;;;20.20;99.90;;;;;;4989283;28;20422;-72
2022/06/13 02:03:22;;;;;;;3.70;3.37;;;20.20;99.90;;;;;;4984637;28;20979;-72
2022/06/13 02:06:24;;;;;;;4.70;3.53;;;20.20;99.90;;;;;;4984664;28;20412;-73
2022/06/13 02:08:57;;;;;;;3.70;3.40;;;20.20;99.90;;;;;;4983327;28;20434;-71
2022/06/13 02:11:52;;;;;;;3.70;3.20;;;20.40;99.90;;;;;;5004173;28;20501;-72
2022/06/13 02:14:45;;;;;;;6.17;2.90;;;20.40;99.90;;;;;;4999016;28;20462;-71
2022/06/13 02:17:11;;;;;;;5.00;3.30;;;20.40;99.90;;;;;;4986498;28;21372;-73
2022/06/13 02:19:56;;;;;;;3.50;3.07;;;20.50;99.90;;;;;;4986416;28;20416;-73
2022/06/13 02:22:36;;;;;;;3.10;2.80;;;20.50;99.90;;;;;;4984411;28;20847;-71
2022/06/13 02:25:07;;;;;;;3.90;3.60;;;20.60;99.90;;;;;;4984771;28;20425;-71
2022/06/13 02:27:36;;;;;;;3.60;3.30;;;20.60;99.90;;;;;;4984396;28;20415;-72
2022/06/13 02:30:10;;;;;;;3.83;3.53;;;20.40;99.90;;;;;;4984735;28;20772;-72
2022/06/13 02:33:08;;;;;;;4.73;3.90;;;20.50;99.90;;;;;;4984628;28;20523;-73
2022/06/13 02:35:43;;;;;;;5.13;3.40;;;20.60;99.90;;;;;;4988484;28;20406;-72
2022/06/13 02:38:16;;;;;;;4.17;3.70;;;20.50;99.90;;;;;;4983746;28;20418;-72
2022/06/13 02:40:47;;;;;;;3.90;3.57;;;20.30;99.90;;;;;;4988345;28;20756;-71
2022/06/13 02:43:26;;;;;;;4.00;3.70;;;20.30;99.90;;;;;;4988279;28;20462;-74
2022/06/13 02:45:57;;;;;;;4.83;4.10;;;20.40;99.90;;;;;;4988462;28;20456;-72
2022/06/13 02:48:44;;;;;;;3.53;3.23;;;20.40;99.90;;;;;;4993639;28;20424;-72
2022/06/13 02:51:22;;;;;;;4.27;3.80;;;20.30;99.90;;;;;;4970719;28;20426;-72
2022/06/13 02:54:03;;;;;;;4.10;3.70;;;20.30;99.90;;;;;;4991511;28;21013;-72
2022/06/13 03:00:00;;;;;;;3.60;3.20;;;20.00;99.90;;;;;;4998591;28;20398;-73
2022/06/13 03:02:40;;;;;;;4.23;3.77;;;19.70;99.90;;;;;;4991796;28;20412;-72
2022/06/13 03:05:35;;;;;;;3.87;3.37;;;19.60;99.90;;;;;;4987865;28;20944;-72
2022/06/13 03:08:25;;;;;;;6.07;4.10;;;19.60;99.90;;;;;;4988205;28;20457;-71
2022/06/13 03:11:16;;;;;;;5.37;3.43;;;19.40;99.90;;;;;;4988001;28;20411;-72
2022/06/13 03:13:54;;;;;;;4.13;3.73;;;19.30;99.90;;;;;;4988141;28;20501;-72
2022/06/13 03:16:28;;;;;;;4.73;3.10;;;19.20;99.90;;;;;;4987653;28;20403;-70
2022/06/13 03:19:00;;;;;;;5.97;4.20;;;19.10;99.90;;;;;;4987594;28;20446;-71
2022/06/13 03:21:37;;;;;;;4.50;3.60;;;19.00;99.90;;;;;;5002216;28;20454;-70
2022/06/13 03:24:10;;;;;;;6.07;3.70;;;18.90;99.90;;;;;;5006852;28;20441;-71
2022/06/13 03:26:42;;;;;;;4.40;3.93;;;19.00;99.90;;;;;;5003287;28;20419;-72
2022/06/13 03:29:23;;;;;;;4.80;3.10;;;19.00;99.90;;;;;;5007556;28;20403;-72
2022/06/13 03:32:18;;;;;;;5.77;3.80;;;19.00;99.90;;;;;;5005715;28;20415;-71
2022/06/13 03:34:48;;;;;;;5.07;3.53;;;19.00;99.90;;;;;;4983555;28;20920;-72
2022/06/13 03:37:26;;;;;;;5.90;3.87;;;18.80;99.90;;;;;;5007520;28;20411;-71
2022/06/13 03:40:05;;;;;;;5.70;3.80;;;18.70;99.90;;;;;;5006784;28;20406;-71
2022/06/13 03:43:10;;;;;;;5.67;3.67;;;18.70;99.90;;;;;;5006562;28;20450;-73
2022/06/13 03:45:43;;;;;;;5.20;3.13;;;18.70;99.90;;;;;;4972709;28;20545;-73
2022/06/13 03:48:21;;;;;;;5.43;4.07;;;18.70;99.90;;;;;;5006610;28;20418;-72
2022/06/13 03:50:53;;;;;;;5.97;3.10;;;18.70;99.90;;;;;;5004499;28;20421;-71
2022/06/13 03:53:26;;;;;;;6.20;3.80;;;18.60;99.90;;;;;;4989960;28;20546;-73
2022/06/13 03:56:16;;;;;;;6.30;3.43;;;18.60;99.90;;;;;;4974463;28;20448;-71
2022/06/13 03:59:16;;;;;;;5.50;3.67;;;18.70;99.90;;;;;;4987009;28;20912;-72
2022/06/13 04:01:51;;;;;;;3.43;3.13;;;18.70;99.90;;;;;;4991490;28;20467;-72
2022/06/13 04:04:26;;;;;;;5.47;3.40;;;18.60;99.90;;;;;;5006048;28;20458;-71
2022/06/13 04:06:54;;;;;;;5.67;3.80;;;18.60;99.90;;;;;;5006166;28;20415;-71
2022/06/13 04:09:34;;;;;;;5.70;4.00;;;18.40;99.90;;;;;;5006117;28;20403;-73
2022/06/13 04:12:09;;;;;;;7.93;3.97;;;18.30;99.90;;;;;;5006028;28;20771;-72
2022/06/13 04:14:37;;;;;;;5.20;4.10;;;18.30;99.90;;;;;;5006066;28;20430;-71
2022/06/13 04:17:18;;;;;;;6.50;4.43;;;18.30;99.90;;;;;;5005382;28;20425;-72
2022/06/13 04:19:59;;;;;;;6.23;3.90;;;18.10;99.90;;;;;;5005737;28;20392;-73
2022/06/13 04:22:49;;;;;;;5.53;3.90;;;18.00;99.90;;;;;;5006172;28;20402;-72
2022/06/13 04:25:29;;;;;;;4.80;3.50;;;18.00;99.90;;;;;;5006257;28;20411;-72
2022/06/13 04:28:05;;;;;;;4.57;3.77;;;18.00;99.90;;;;;;5005816;28;20494;-72
2022/06/13 04:30:33;;;;;;;7.70;4.43;;;18.00;99.90;;;;;;4997021;28;20430;-72
2022/06/13 04:33:13;;;;;;;8.33;4.40;;;17.90;99.90;;;;;;5004381;28;20877;-70
2022/06/13 04:35:40;;;;;;;8.47;4.03;;;17.80;99.90;;;;;;5005562;28;20513;-71
2022/06/13 04:38:10;;;;;;;7.47;3.60;;;17.90;99.90;;;;;;5005308;28;20466;-72
2022/06/13 04:40:40;;;;;;;4.47;3.90;;;17.80;99.90;;;;;;5005539;28;20923;-71
2022/06/13 04:43:09;;;;;;;6.23;3.33;;;17.90;99.90;;;;;;5005532;28;20501;-73
2022/06/13 04:45:50;;;;;;;5.77;3.90;;;17.80;99.90;;;;;;5005457;28;20442;-72
2022/06/13 04:48:16;;;;;;;5.10;3.77;;;17.80;99.90;;;;;;4973379;28;20407;-72
2022/06/13 04:50:47;;;;;;;6.20;3.60;;;17.70;99.90;;;;;;4986328;28;20423;-71
2022/06/13 04:53:29;;;;;;;6.67;3.73;;;17.80;99.90;;;;;;4981230;28;20524;-71
2022/06/13 04:55:55;;;;;;;11.87;3.90;;;17.90;99.90;;;;;;5004878;28;20916;-71
2022/06/13 04:58:30;;;;;;;10.30;4.00;;;18.00;99.90;;;;;;5004640;28;20422;-72
2022/06/13 05:01:06;;;;;;;11.60;4.10;;;18.00;99.90;;;;;;4994409;28;20518;-70
2022/06/13 05:03:42;;;;;;;10.10;3.87;;;18.20;99.90;;;;;;4967803;28;20463;-71
2022/06/13 05:06:35;;;;;;;4.23;3.20;;;18.10;99.90;;;;;;4985601;28;20431;-71
2022/06/13 05:09:13;;;;;;;6.73;3.30;;;18.20;99.90;;;;;;4985394;28;20404;-72
2022/06/13 05:12:05;;;;;;;8.07;3.77;;;18.10;99.90;;;;;;4985341;28;20986;-71
2022/06/13 05:14:34;;;;;;;6.90;4.10;;;18.10;99.90;;;;;;4973170;28;20506;-71
2022/06/13 05:17:11;;;;;;;7.53;3.87;;;18.30;99.90;;;;;;4985144;28;20419;-72
2022/06/13 05:19:59;;;;;;;6.53;3.37;;;18.40;99.90;;;;;;4987225;28;20796;-71
2022/06/13 05:23:02;;;;;;;5.00;3.37;;;18.30;99.90;;;;;;4985199;28;20860;-71
2022/06/13 05:25:53;;;;;;;10.07;3.90;;;18.40;99.90;;;;;;4985922;28;20732;-72
2022/06/13 05:28:21;;;;;;;6.17;3.97;;;18.30;99.90;;;;;;5004282;28;20407;-72
2022/06/13 05:30:51;;;;;;;7.13;3.90;;;18.40;99.90;;;;;;4986222;28;20466;-71
2022/06/13 05:33:21;;;;;;;4.23;3.40;;;18.30;99.90;;;;;;4984497;28;20475;-70
2022/06/13 05:35:47;;;;;;;5.13;3.73;;;18.30;99.90;;;;;;5001849;28;20418;-70
2022/06/13 05:38:41;;;;;;;6.37;4.03;;;18.30;99.90;;;;;;5003710;28;20438;-72
2022/06/13 05:41:07;;;;;;;6.40;3.70;;;18.20;99.90;;;;;;4984793;28;20411;-70
2022/06/13 05:43:32;;;;;;;8.90;4.17;;;18.20;99.90;;;;;;4984780;28;20780;-72
2022/06/13 05:45:58;;;;;;;8.53;3.47;;;18.20;99.90;;;;;;4984732;28;20188;-71
2022/06/13 05:48:24;;;;;;;5.80;3.33;;;18.30;99.90;;;;;;4984652;28;20189;-73
2022/06/13 05:50:50;;;;;;;5.57;3.40;;;18.50;99.90;;;;;;4984856;28;20411;-72
2022/06/13 05:53:20;;;;;;;10.23;5.33;;;18.70;99.90;;;;;;4966959;28;20216;-72
2022/06/13 05:55:47;;;;;;;9.20;3.70;;;18.70;99.90;;;;;;4984728;28;20407;-71
2022/06/13 05:58:15;;;;;;;7.60;3.87;;;18.70;99.90;;;;;;4975149;28;20935;-70
2022/06/13 06:00:52;;;;;;;8.03;4.20;;;18.80;99.90;;;;;;4986787;28;20416;-72
2022/06/13 06:03:18;;;;;;;7.73;3.87;;;18.60;99.90;;;;;;4997024;28;20493;-72
2022/06/13 06:05:44;;;;;;;4.10;3.10;;;18.50;99.90;;;;;;5004288;28;20422;-72
2022/06/13 06:08:16;;;;;;;6.03;4.13;;;18.40;99.90;;;;;;5005789;28;20598;-73
2022/06/13 06:10:43;;;;;;;5.30;3.37;;;18.30;99.90;;;;;;4997997;28;20455;-71
2022/06/13 06:13:11;;;;;;;6.93;3.83;;;18.40;99.90;;;;;;4970983;28;20498;-71
2022/06/13 06:15:39;;;;;;;5.80;3.10;;;18.50;99.90;;;;;;4988649;28;20416;-72
2022/06/13 06:18:05;;;;;;;6.27;3.40;;;18.60;99.90;;;;;;4988290;28;20491;-71
2022/06/13 06:20:30;;;;;;;6.47;3.40;;;18.70;99.90;;;;;;4988464;28;20404;-71
2022/06/13 06:22:56;;;;;;;7.40;3.30;;;18.70;99.90;;;;;;5005213;28;20426;-71
2022/06/13 06:25:22;;;;;;;13.63;4.23;;;18.90;99.90;;;;;;5008024;28;20175;-71
2022/06/13 06:27:47;;;;;;;7.63;3.53;;;18.70;99.90;;;;;;5007937;28;20180;-72
2022/06/13 06:30:16;;;;;;;10.13;3.47;;;18.90;99.90;;;;;;5000328;28;20528;-71
2022/06/13 06:32:42;;;;;;;6.10;3.40;;;19.20;99.90;;;;;;5007675;28;20216;-72
2022/06/13 06:35:08;;;;;;;4.30;2.93;;;19.30;99.90;;;;;;5003906;28;20491;-72
2022/06/13 06:37:33;;;;;;;4.93;3.40;;;19.20;99.90;;;;;;4988780;28;20418;-73
2022/06/13 06:39:59;;;;;;;5.50;3.17;;;19.20;99.90;;;;;;4987997;28;20416;-72
2022/06/13 06:42:25;;;;;;;6.37;2.80;;;19.20;99.90;;;;;;4987905;28;20267;-72
2022/06/13 06:44:50;;;;;;;6.27;3.40;;;19.20;99.90;;;;;;4987701;28;20591;-71
2022/06/13 06:47:16;;;;;;;5.60;2.93;;;19.30;99.90;;;;;;4997160;28;20238;-71
2022/06/13 06:49:41;;;;;;;6.07;3.50;;;19.30;99.90;;;;;;5007214;28;20566;-72
2022/06/13 06:52:07;;;;;;;4.37;2.60;;;19.00;99.90;;;;;;5007546;28;20279;-71
2022/06/13 07:00:05;;;;;;;4.37;2.57;;;19.10;99.90;;;;;;4992309;28;20394;-71
2022/06/13 07:02:30;;;;;;;9.33;3.17;;;19.20;99.90;;;;;;5002381;22;20503;-72
2022/06/13 07:05:01;;;;;;;5.50;2.97;;;19.20;99.90;;;;;;4970206;28;20423;-71
2022/06/13 07:07:27;;;;;;;6.03;2.90;;;19.20;99.90;;;;;;4986932;28;20168;-71
2022/06/13 07:09:53;;;;;;;4.43;2.80;;;19.10;99.90;;;;;;4987010;28;20406;-73
2022/06/13 07:12:19;;;;;;;7.30;2.90;;;19.20;99.90;;;;;;4986232;28;20464;-72
2022/06/13 07:14:45;;;;;;;9.23;3.47;;;19.20;99.90;;;;;;4987200;28;20316;-71
2022/06/13 07:17:12;;;;;;;6.93;3.10;;;19.20;99.90;;;;;;4987344;28;20204;-74
2022/06/13 07:19:38;;;;;;;6.17;2.93;;;19.30;99.90;;;;;;4986517;28;20404;-70
2022/06/13 07:22:05;;;;;;;5.20;2.97;;;19.40;99.90;;;;;;4986910;28;20489;-69
2022/06/13 07:24:31;;;;;;;5.87;3.00;;;19.40;99.90;;;;;;4987097;28;20679;-70
2022/06/13 07:26:57;;;;;;;6.50;3.70;;;19.40;99.90;;;;;;4987128;28;20430;-71
2022/06/13 07:29:23;;;;;;;4.37;3.00;;;19.50;99.90;;;;;;4987159;28;20523;-72
2022/06/13 07:31:56;;;;;;;5.10;3.07;;;19.60;99.90;;;;;;4986522;28;20546;-71
2022/06/13 07:34:26;;;;;;;7.73;3.10;;;19.70;99.90;;;;;;4987549;28;20169;-71
2022/06/13 07:36:54;;;;;;;6.53;3.30;;;19.60;99.90;;;;;;4969459;28;20789;-71
2022/06/13 07:39:20;;;;;;;7.60;3.67;;;19.50;99.90;;;;;;4987868;28;20539;-71
2022/06/13 07:41:46;;;;;;;4.80;3.10;;;19.50;99.90;;;;;;4986354;28;20444;-72
2022/06/13 07:44:39;;;;;;;5.33;3.40;;;19.50;99.90;;;;;;4987011;28;21583;-70
2022/06/13 07:47:06;;;;;;;8.50;3.70;;;19.60;99.90;;;;;;4986311;28;20428;-71
2022/06/13 07:49:31;;;;;;;3.70;2.90;;;19.60;99.90;;;;;;4986586;28;20498;-71
2022/06/13 07:51:57;;;;;;;5.70;2.90;;;19.90;99.90;;;;;;4986055;28;20531;-71
2022/06/13 07:54:23;;;;;;;6.07;3.30;;;19.90;99.90;;;;;;4986477;28;20935;-70
2022/06/13 07:56:49;;;;;;;8.87;3.50;;;19.90;99.90;;;;;;4986411;28;20204;-70
2022/06/13 07:59:19;;;;;;;3.93;3.30;;;20.00;99.90;;;;;;4986407;28;20180;-71
2022/06/13 08:01:45;;;;;;;11.27;3.70;;;19.90;99.90;;;;;;4986105;28;20538;-71
2022/06/13 08:04:11;;;;;;;6.30;3.13;;;20.00;99.90;;;;;;4986640;28;20750;-71
2022/06/13 08:06:41;;;;;;;4.73;3.53;;;20.10;99.90;;;;;;4986305;28;20892;-71
2022/06/13 08:09:09;;;;;;;5.50;3.23;;;19.90;99.90;;;;;;4986466;28;20917;-71
2022/06/13 08:14:24;;;;;;;5.47;3.30;;;20.00;99.90;;;;;;4986454;28;20419;-67
2022/06/13 08:16:50;;;;;;;8.90;3.40;;;20.20;99.90;;;;;;4986637;28;20510;-70
2022/06/13 08:19:15;;;;;;;8.43;3.50;;;20.40;99.90;;;;;;4986121;28;20250;-70
2022/06/13 08:21:41;;;;;;;5.70;2.70;;;20.50;99.90;;;;;;4986427;28;20205;-70
2022/06/13 08:24:07;;;;;;;6.17;2.97;;;20.60;99.90;;;;;;4986164;28;20191;-71
2022/06/13 08:26:33;;;;;;;7.00;2.97;;;20.50;99.90;;;;;;4986104;28;20271;-71
2022/06/13 08:28:58;;;;;;;4.37;3.03;;;20.50;99.90;;;;;;4985864;28;20448;-70
2022/06/13 08:31:24;;;;;;;9.33;3.80;;;20.50;99.90;;;;;;4985581;28;20873;-71
2022/06/13 08:33:50;;;;;;;5.73;3.33;;;20.30;99.90;;;;;;4985789;28;20304;-70
2022/06/13 08:36:16;;;;;;;9.20;3.03;;;20.30;99.90;;;;;;4985862;28;20268;-73
2022/06/13 08:38:42;;;;;;;4.13;3.03;;;20.20;99.90;;;;;;4986259;28;20794;-70
2022/06/13 08:41:28;;;;;;;7.20;2.90;;;20.20;99.90;;;;;;4985984;28;20669;-71
2022/06/13 08:44:18;;;;;;;9.80;3.77;;;20.30;99.90;;;;;;4986116;28;20184;-72
2022/06/13 08:47:06;;;;;;;6.87;3.60;;;20.50;99.90;;;;;;4985862;28;20408;-70
2022/06/13 08:49:35;;;;;;;6.23;3.37;;;20.60;99.90;;;;;;4986567;28;20427;-70
2022/06/13 08:52:33;;;;;;;4.27;3.00;;;20.50;99.90;;;;;;4986094;28;20815;-71
2022/06/13 08:55:13;;;;;;;4.90;3.33;;;20.70;99.90;;;;;;4985727;28;20407;-70
2022/06/13 08:57:47;;;;;;;6.83;3.23;;;21.00;99.90;;;;;;4985454;28;20408;-71
2022/06/13 09:00:19;;;;;;;9.27;3.40;;;20.90;99.90;;;;;;4985500;28;20950;-71
2022/06/13 09:02:55;;;;;;;5.40;3.47;;;21.10;99.90;;;;;;4985554;28;20465;-71
2022/06/13 09:05:29;;;;;;;10.00;3.90;;;21.30;99.90;;;;;;4984808;28;20404;-71
2022/06/13 09:08:05;;;;;;;11.73;4.37;;;21.30;99.90;;;;;;4985404;28;20426;-71
2022/06/13 09:11:02;;;;;;;5.40;4.03;;;21.10;99.90;;;;;;4984808;28;20438;-72
2022/06/13 09:13:49;;;;;;;6.33;3.70;;;21.10;99.90;;;;;;4985156;28;20464;-71
2022/06/13 09:16:35;;;;;;;5.53;3.27;;;21.00;99.90;;;;;;4985317;28;20407;-70
2022/06/13 09:19:15;;;;;;;5.47;3.60;;;21.20;99.90;;;;;;4985381;28;20828;-70
2022/06/13 09:21:51;;;;;;;9.33;3.80;;;21.10;99.90;;;;;;4985025;28;20804;-71
2022/06/13 09:24:44;;;;;;;11.30;4.03;;;21.10;99.90;;;;;;4985033;28;20426;-70
2022/06/13 09:27:14;;;;;;;6.07;3.90;;;21.50;99.90;;;;;;4976573;28;20474;-70
2022/06/13 09:29:50;;;;;;;9.93;3.30;;;21.60;99.50;;;;;;4985029;28;20420;-71
2022/06/13 09:32:21;;;;;;;5.33;3.37;;;21.60;98.50;;;;;;4984888;28;20579;-70
2022/06/13 09:34:51;;;;;;;7.60;3.67;;;21.80;98.40;;;;;;4985048;28;20515;-70
2022/06/13 09:37:44;;;;;;;5.07;3.00;;;21.80;98.30;;;;;;4985234;28;20412;-70
2022/06/13 09:40:13;;;;;;;4.90;2.93;;;21.80;98.00;;;;;;4967002;28;21507;-70
2022/06/13 09:43:13;;;;;;;7.33;2.93;;;21.70;96.20;;;;;;4983923;28;20446;-71
2022/06/13 09:45:50;;;;;;;3.30;2.50;;;21.60;97.80;;;;;;4982414;28;20943;-68
2022/06/13 09:48:29;;;;;;;4.80;2.60;;;21.80;96.60;;;;;;4985265;28;20423;-70
2022/06/13 09:51:13;;;;;;;5.00;2.53;;;21.80;96.30;;;;;;4984831;28;20443;-69
2022/06/13 09:54:03;;;;;;;3.10;2.50;;;21.70;95.10;;;;;;4984376;28;20490;-72
2022/06/13 09:56:35;;;;;;;7.53;3.33;;;21.90;95.10;;;;;;4983812;28;20412;-70
2022/06/13 09:59:20;;;;;;;5.50;2.33;;;22.10;94.70;;;;;;4984492;28;20435;-71
2022/06/13 10:01:59;;;;;;;7.90;3.30;;;22.30;94.70;;;;;;4966822;28;20511;-70
2022/06/13 10:04:41;;;;;;;5.00;2.80;;;22.20;95.30;;;;;;4984523;28;21359;-70
2022/06/13 10:07:32;;;;;;;4.63;2.50;;;22.40;95.10;;;;;;4984521;28;20913;-71
2022/06/13 10:10:10;;;;;;;5.80;2.37;;;22.30;94.50;;;;;;4980306;28;20423;-70
2022/06/13 10:12:54;;;;;;;4.80;2.80;;;22.40;94.90;;;;;;4983884;28;21046;-69
2022/06/13 10:15:20;;;;;;;6.53;3.43;;;22.60;95.00;;;;;;4984542;28;20435;-70
2022/06/13 10:17:49;;;;;;;4.80;2.63;;;22.30;94.90;;;;;;4984653;28;20424;-69
2022/06/13 10:20:26;;;;;;;4.60;2.77;;;22.20;94.50;;;;;;4984361;28;20628;-70
2022/06/13 10:23:29;;;;;;;6.40;2.90;;;22.50;94.10;;;;;;4984364;28;20435;-70
2022/06/13 10:25:55;;;;;;;5.87;2.83;;;22.80;93.80;;;;;;4966846;28;20438;-70
2022/06/13 10:28:28;;;;;;;6.33;2.43;;;23.00;92.70;;;;;;4984430;28;20542;-69
2022/06/13 10:31:24;;;;;;;5.73;3.50;;;23.10;91.70;;;;;;4984631;28;20185;-70
2022/06/13 10:34:19;;;;;;;5.67;2.70;;;23.00;94.00;;;;;;4983616;28;20994;-71
2022/06/13 10:36:52;;;;;;;4.67;2.30;;;23.10;91.70;;;;;;4984563;28;20785;-70
2022/06/13 10:39:21;;;;;;;4.73;2.40;;;22.80;91.30;;;;;;4984293;28;20431;-70
2022/06/13 10:41:51;;;;;;;4.90;2.30;;;22.90;90.90;;;;;;4983886;28;20432;-70
2022/06/13 10:44:18;;;;;;;2.70;2.43;;;22.90;91.00;;;;;;4984408;28;20774;-70
2022/06/13 10:46:50;;;;;;;3.13;2.00;;;23.00;90.80;;;;;;4983587;28;20431;-69
2022/06/13 10:49:38;;;;;;;4.43;2.00;;;23.20;91.10;;;;;;4984055;28;20427;-70
2022/06/13 10:52:09;;;;;;;3.80;2.37;;;23.50;90.00;;;;;;4984055;28;20439;-69
2022/06/13 10:54:44;;;;;;;3.90;2.30;;;23.60;88.90;;;;;;4986113;28;20784;-69
2022/06/13 10:57:17;;;;;;;4.10;2.30;;;23.60;89.00;;;;;;4987861;28;20502;-70
2022/06/13 10:59:43;;;;;;;9.30;4.43;;;23.60;89.60;;;;;;4988003;28;20421;-71
2022/06/13 11:02:17;;;;;;;7.23;2.40;;;23.30;88.70;;;;;;4987284;28;20542;-69
2022/06/13 11:04:43;;;;;;;3.83;2.20;;;23.20;87.90;;;;;;4987555;28;20184;-71
2022/06/13 11:07:18;;;;;;;6.57;2.90;;;23.40;89.50;;;;;;4987892;28;20422;-69
2022/06/13 11:09:54;;;;;;;2.80;1.87;;;23.50;89.90;;;;;;4987588;28;20191;-71
2022/06/13 11:12:33;;;;;;;5.03;2.33;;;23.20;90.00;;;;;;4987774;28;20463;-71
2022/06/13 11:23:54;;;;;;;3.13;2.27;;;23.30;88.80;;;;;;4987631;28;20486;-73
2022/06/13 11:29:17;;;;;;;4.00;2.80;;;23.60;87.80;;;;;;4960213;28;20489;-71
2022/06/13 11:31:51;;;;;;;5.00;2.60;;;24.00;90.00;;;;;;4987787;28;20435;-72
2022/06/13 11:34:38;;;;;;;4.07;2.37;;;25.00;84.50;;;;;;4987375;28;20554;-70
2022/06/13 11:37:12;;;;;;;4.27;2.60;;;26.40;83.10;;;;;;4987345;28;20484;-69
2022/06/13 11:39:46;;;;;;;3.80;2.40;;;28.20;78.00;;;;;;4987136;28;20415;-69
2022/06/13 11:42:30;;;;;;;5.00;2.10;;;28.80;71.20;;;;;;4986736;28;20463;-71
2022/06/13 11:45:07;;;;;;;3.80;2.47;;;29.00;67.90;;;;;;4969394;28;20411;-70
2022/06/13 11:47:47;;;;;;;4.50;3.03;;;28.50;68.30;;;;;;4986770;28;20414;-70
2022/06/13 11:50:23;;;;;;;4.10;2.53;;;28.70;66.80;;;;;;4986511;28;20403;-70
2022/06/13 11:55:56;;;;;;;2.73;2.37;;;28.20;66.20;;;;;;4987178;28;20407;-70
2022/06/13 11:58:31;;;;;;;3.20;2.00;;;27.10;68.50;;;;;;4986727;28;20400;-71
2022/06/13 12:01:36;;;;;;;4.47;2.20;;;27.50;68.30;;;;;;4986755;28;20407;-71
2022/06/13 12:04:15;;;;;;;5.30;2.10;;;27.50;69.90;;;;;;4986968;28;20429;-71
2022/06/13 12:06:47;;;;;;;4.17;2.23;;;28.30;68.00;;;;;;4986118;28;20420;-71
2022/06/13 12:09:23;;;;;;;4.00;2.13;;;28.40;68.70;;;;;;4986692;28;20419;-70
2022/06/13 12:12:00;;;;;;;4.63;2.60;;;28.90;65.90;;;;;;4985553;28;20463;-70
2022/06/13 12:14:27;;;;;;;5.43;2.33;;;29.20;63.60;;;;;;4986177;28;20645;-71
2022/06/13 12:16:59;;;;;;;3.37;1.80;;;30.40;63.40;;;;;;4986260;28;20439;-71
2022/06/13 12:19:31;;;;;;;4.80;2.40;;;30.60;57.50;;;;;;4986039;28;20821;-70
2022/06/13 12:22:07;;;;;;;3.70;2.27;;;31.30;56.50;;;;;;4985871;28;20924;-72
2022/06/13 12:24:38;;;;;;;3.03;2.10;;;31.60;53.90;;;;;;4986043;28;21688;-71
2022/06/13 12:27:23;;;;;;;3.53;1.60;;;28.60;57.60;;;;;;4985326;28;20427;-71
2022/06/13 12:30:12;;;;;;;3.50;2.00;;;28.20;58.90;;;;;;4985798;28;20412;-72
2022/06/13 12:32:45;;;;;;;6.70;2.70;;;28.00;59.80;;;;;;4985723;28;20551;-71
2022/06/13 12:35:36;;;;;;;4.70;2.07;;;27.60;60.30;;;;;;4986085;28;20408;-71
2022/06/13 12:38:27;;;;;;;5.47;2.20;;;29.20;57.80;;;;;;4985971;28;20416;-71
2022/06/13 12:41:17;;;;;;;3.13;1.97;;;29.50;57.90;;;;;;4986010;28;20743;-71
2022/06/13 12:44:20;;;;;;;2.90;1.93;;;29.10;57.30;;;;;;4986037;28;20407;-71
2022/06/13 12:46:55;;;;;;;3.03;1.97;;;30.40;54.20;;;;;;4985549;28;20546;-71
2022/06/13 12:49:24;;;;;;;3.73;1.70;;;29.10;54.30;;;;;;4968675;28;20889;-71
2022/06/13 12:52:03;;;;;;;4.20;1.67;;;29.00;55.60;;;;;;4985786;28;20451;-72
2022/06/13 12:54:46;;;;;;;3.83;1.87;;;28.70;55.00;;;;;;4968301;28;20494;-69
2022/06/13 12:57:30;;;;;;;6.53;2.23;;;28.90;55.40;;;;;;4985628;28;20404;-72
2022/06/13 12:59:59;;;;;;;6.37;2.33;;;27.90;57.50;;;;;;4986007;28;20412;-70
2022/06/13 13:02:47;;;;;;;3.00;2.00;;;27.60;57.40;;;;;;4986631;28;20478;-71
2022/06/13 13:05:26;;;;;;;3.00;1.60;;;27.40;57.90;;;;;;4984492;28;20428;-71
2022/06/13 13:07:55;;;;;;;2.77;2.03;;;27.00;58.40;;;;;;4967855;28;20415;-70
2022/06/13 13:10:33;;;;;;;3.20;1.80;;;26.70;60.30;;;;;;4984809;28;20416;-70
2022/06/13 13:13:23;;;;;;;3.97;1.63;;;27.60;58.20;;;;;;4985019;28;20485;-72
2022/06/13 13:16:09;;;;;;;6.60;1.80;;;27.40;57.80;;;;;;4985566;28;20962;-72
2022/06/13 13:18:43;;;;;;;2.73;1.80;;;27.80;57.70;;;;;;4984636;28;20395;-73
2022/06/13 13:21:29;;;;;;;3.23;1.80;;;28.70;56.30;;;;;;4985302;28;20511;-71
2022/06/13 13:24:49;;;;;;;5.03;2.60;;;28.80;55.70;;;;;;4985686;28;20415;-71
2022/06/13 13:27:17;;;;;;;2.67;1.77;;;27.80;56.90;;;;;;4943600;29;20484;-70
2022/06/13 13:29:48;;;;;;;3.33;2.23;;;28.00;57.30;;;;;;4977014;28;20463;-72
2022/06/13 13:32:23;;;;;;;5.47;1.80;;;27.20;58.40;;;;;;4984809;28;20475;-70
2022/06/13 13:35:05;;;;;;;2.40;1.63;;;26.60;59.20;;;;;;4985071;28;20415;-70
2022/06/13 13:38:06;;;;;;;6.13;1.80;;;26.10;59.90;;;;;;4966888;28;20425;-70
2022/06/13 13:40:55;;;;;;;5.03;1.90;;;27.30;58.80;;;;;;4984529;28;20677;-71
2022/06/13 13:43:43;;;;;;;3.63;1.80;;;29.70;55.80;;;;;;4984497;28;20455;-70
2022/06/13 13:46:30;;;;;;;5.57;1.90;;;31.50;52.10;;;;;;4984952;28;20461;-71
2022/06/13 13:49:10;;;;;;;3.73;2.20;;;33.20;49.90;;;;;;4984873;28;20458;-71
2022/06/13 13:51:49;;;;;;;2.70;1.87;;;32.60;47.70;;;;;;4984657;28;21106;-71
2022/06/13 13:54:23;;;;;;;4.80;2.07;;;31.30;50.10;;;;;;4984582;28;20513;-70
2022/06/13 13:57:06;;;;;;;5.50;1.90;;;30.70;51.90;;;;;;4984392;28;20400;-71